Accueil
METAR-TAF:

METAR-TAF

Aéroports :

Nakhon Phanom, Thaïlande

latitude: 17-23-02N, longitude: 104-38-35E, altitude: 179 m

Observation

Le bulletin a été fait il y a 50 minutes, à 01:00 UTC
Vent 5 kt de est/sud-est, variant entre est et sud
Température 30°C
Humidité 84%
Pression 1005 hPa
Visibilité 10 km ou plus
Quelques nuages à une hauteur de 1500 ft

METAR: VTUW 220100Z 12005KT 090V170 9999 FEW015 30/27 Q1005 NOSIG

Heure: 08:50 (01:50 UTC)

Prévision

Le bulletin a été fait il y a 2 heures et 50 minutes, à 23:00 UTC
Prévision valable du 22 à 00 UTC au 22 à 24 UTC
Vent 5 kt de sud/sud-ouest
Visibilité: 9000 m
Quelques nuages à une hauteur de 3000 ft
Temporairement
du 22 à 08 UTC au 22 à 14 UTC
Vent 15 kt de direction variable
Quelques nuages à une hauteur de 1800 ft, Cumulonimbus.
Nuages fragmentés à une hauteur de 2500 ft
orage, pluie faible,

TAF: VTUW 212300Z 2200/2224 21005KT 9000 FEW030 TEMPO 2208/2214 VRB15KT -TSRA FEW018CB BKN025

Observations et prévisions météorologiques de plus de 4000 aéroports (messages METAR et TAF).

Les stations disponibles sont représentées par des disques jaunes et rouges sur la carte.

Passer la souris dessus pour voir le nom de la station.

Cliquer dessus pour voir les observations et prévisions météorologiques.

Pour changer de carte: cliquez sur les boutons verts avec une croix noire pour zoomer, sur le bouton vert avec un tiret pour effectuer un zoom arrière, ou sur les flèches vertes pour les cartes adjacentes.


METAR-TAF: